sensor_id;sensor_type;location;lat;lon;timestamp;pressure;altitude;pressure_sealevel;temperature;humidity
34205;BME280;20471;49.680;20.074;2023-04-07T00:01:52;97040.48;;;0.39;77.73
34205;BME280;20471;49.680;20.074;2023-04-07T00:04:20;97037.73;;;0.36;77.77
34205;BME280;20471;49.680;20.074;2023-04-07T00:06:48;97035.36;;;0.33;77.80
34205;BME280;20471;49.680;20.074;2023-04-07T00:09:16;97036.14;;;0.34;77.86
34205;BME280;20471;49.680;20.074;2023-04-07T00:11:44;97037.42;;;0.38;77.93
34205;BME280;20471;49.680;20.074;2023-04-07T00:14:12;97035.34;;;0.37;77.87
34205;BME280;20471;49.680;20.074;2023-04-07T00:16:40;97035.97;;;0.34;77.83
34205;BME280;20471;49.680;20.074;2023-04-07T00:19:08;97029.13;;;0.34;77.98
34205;BME280;20471;49.680;20.074;2023-04-07T00:21:36;97022.80;;;0.35;77.98
34205;BME280;20471;49.680;20.074;2023-04-07T00:24:04;97021.45;;;0.36;77.90
34205;BME280;20471;49.680;20.074;2023-04-07T00:26:33;97022.39;;;0.38;77.92
34205;BME280;20471;49.680;20.074;2023-04-07T00:29:01;97023.27;;;0.39;77.94
34205;BME280;20471;49.680;20.074;2023-04-07T00:31:29;97026.10;;;0.41;77.92
34205;BME280;20471;49.680;20.074;2023-04-07T00:33:57;97022.00;;;0.36;77.77
34205;BME280;20471;49.680;20.074;2023-04-07T00:36:25;97016.89;;;0.34;77.82
34205;BME280;20471;49.680;20.074;2023-04-07T00:38:54;97013.56;;;0.37;77.93
34205;BME280;20471;49.680;20.074;2023-04-07T00:41:22;97014.62;;;0.41;77.93
34205;BME280;20471;49.680;20.074;2023-04-07T00:43:50;97010.63;;;0.44;77.89
34205;BME280;20471;49.680;20.074;2023-04-07T00:46:21;97005.23;;;0.46;77.79
34205;BME280;20471;49.680;20.074;2023-04-07T00:48:49;97001.27;;;0.48;77.82
34205;BME280;20471;49.680;20.074;2023-04-07T00:51:21;97000.98;;;0.49;77.81
34205;BME280;20471;49.680;20.074;2023-04-07T00:53:49;97001.31;;;0.48;77.76
34205;BME280;20471;49.680;20.074;2023-04-07T00:56:17;96997.86;;;0.46;77.73
34205;BME280;20471;49.680;20.074;2023-04-07T00:58:45;96994.64;;;0.43;77.75
34205;BME280;20471;49.680;20.074;2023-04-07T01:04:10;96990.65;;;0.45;77.95
34205;BME280;20471;49.680;20.074;2023-04-07T01:06:43;96990.06;;;0.49;77.97
34205;BME280;20471;49.680;20.074;2023-04-07T01:09:25;96983.95;;;0.51;77.89
34205;BME280;20471;49.680;20.074;2023-04-07T01:15:12;96977.65;;;0.56;77.70
34205;BME280;20471;49.680;20.074;2023-04-07T01:17:54;96979.19;;;0.56;77.70
34205;BME280;20471;49.680;20.074;2023-04-07T01:20:26;96977.89;;;0.57;77.64
34205;BME280;20471;49.680;20.074;2023-04-07T01:23:01;96974.54;;;0.57;77.66
34205;BME280;20471;49.680;20.074;2023-04-07T01:31:07;96973.77;;;0.52;77.79
34205;BME280;20471;49.680;20.074;2023-04-07T01:33:37;96972.08;;;0.52;77.83
34205;BME280;20471;49.680;20.074;2023-04-07T01:36:07;96972.17;;;0.51;77.84
34205;BME280;20471;49.680;20.074;2023-04-07T01:38:36;96969.92;;;0.49;77.87
34205;BME280;20471;49.680;20.074;2023-04-07T01:41:07;96964.40;;;0.47;77.88
34205;BME280;20471;49.680;20.074;2023-04-07T01:43:38;96969.91;;;0.46;77.95
34205;BME280;20471;49.680;20.074;2023-04-07T01:46:06;96972.36;;;0.46;78.08
34205;BME280;20471;49.680;20.074;2023-04-07T01:48:36;96965.19;;;0.45;77.99
34205;BME280;20471;49.680;20.074;2023-04-07T01:51:05;96971.77;;;0.45;78.06
34205;BME280;20471;49.680;20.074;2023-04-07T01:53:33;96973.58;;;0.44;78.11
34205;BME280;20471;49.680;20.074;2023-04-07T01:56:03;96967.90;;;0.43;78.10
34205;BME280;20471;49.680;20.074;2023-04-07T01:58:32;96968.58;;;0.41;78.08
34205;BME280;20471;49.680;20.074;2023-04-07T02:01:00;96971.04;;;0.41;78.20
34205;BME280;20471;49.680;20.074;2023-04-07T02:03:55;96977.41;;;0.41;78.16
34205;BME280;20471;49.680;20.074;2023-04-07T02:06:31;96981.75;;;0.40;78.30
34205;BME280;20471;49.680;20.074;2023-04-07T02:09:06;96980.54;;;0.42;78.20
34205;BME280;20471;49.680;20.074;2023-04-07T02:11:35;96977.09;;;0.43;78.13
34205;BME280;20471;49.680;20.074;2023-04-07T02:14:05;96976.08;;;0.44;78.22
34205;BME280;20471;49.680;20.074;2023-04-07T02:16:34;96974.69;;;0.42;78.24
34205;BME280;20471;49.680;20.074;2023-04-07T02:19:04;96970.90;;;0.41;78.28
34205;BME280;20471;49.680;20.074;2023-04-07T02:21:33;96962.71;;;0.41;78.32
34205;BME280;20471;49.680;20.074;2023-04-07T02:24:05;96961.66;;;0.43;78.39
34205;BME280;20471;49.680;20.074;2023-04-07T02:26:34;96962.70;;;0.45;78.41
34205;BME280;20471;49.680;20.074;2023-04-07T02:29:03;96961.41;;;0.46;78.47
34205;BME280;20471;49.680;20.074;2023-04-07T02:31:31;96955.88;;;0.49;78.46
34205;BME280;20471;49.680;20.074;2023-04-07T02:33:59;96955.66;;;0.54;78.50
34205;BME280;20471;49.680;20.074;2023-04-07T02:36:27;96953.14;;;0.58;78.51
34205;BME280;20471;49.680;20.074;2023-04-07T02:38:57;96951.07;;;0.58;78.39
34205;BME280;20471;49.680;20.074;2023-04-07T02:41:25;96949.08;;;0.57;78.35
34205;BME280;20471;49.680;20.074;2023-04-07T02:43:53;96947.09;;;0.59;78.37
34205;BME280;20471;49.680;20.074;2023-04-07T02:46:21;96948.45;;;0.61;78.42
34205;BME280;20471;49.680;20.074;2023-04-07T02:48:49;96948.71;;;0.61;78.32
34205;BME280;20471;49.680;20.074;2023-04-07T02:51:17;96949.14;;;0.62;78.37
34205;BME280;20471;49.680;20.074;2023-04-07T02:53:45;96948.29;;;0.64;78.30
34205;BME280;20471;49.680;20.074;2023-04-07T02:56:15;96948.95;;;0.64;78.28
34205;BME280;20471;49.680;20.074;2023-04-07T02:58:43;96945.36;;;0.58;78.27
34205;BME280;20471;49.680;20.074;2023-04-07T03:01:11;96944.13;;;0.53;78.35
34205;BME280;20471;49.680;20.074;2023-04-07T03:03:39;96948.74;;;0.53;78.37
34205;BME280;20471;49.680;20.074;2023-04-07T03:06:07;96947.79;;;0.54;78.32
34205;BME280;20471;49.680;20.074;2023-04-07T03:08:35;96949.48;;;0.54;78.41
34205;BME280;20471;49.680;20.074;2023-04-07T03:11:04;96957.02;;;0.53;78.41
34205;BME280;20471;49.680;20.074;2023-04-07T03:13:32;96959.56;;;0.51;78.39
34205;BME280;20471;49.680;20.074;2023-04-07T03:16:00;96959.76;;;0.49;78.45
34205;BME280;20471;49.680;20.074;2023-04-07T03:18:28;96960.25;;;0.46;78.44
34205;BME280;20471;49.680;20.074;2023-04-07T03:20:56;96958.91;;;0.44;78.57
34205;BME280;20471;49.680;20.074;2023-04-07T03:23:24;96955.48;;;0.41;78.63
34205;BME280;20471;49.680;20.074;2023-04-07T03:25:54;96954.31;;;0.41;78.67
34205;BME280;20471;49.680;20.074;2023-04-07T03:28:23;96950.06;;;0.42;78.62
34205;BME280;20471;49.680;20.074;2023-04-07T03:30:51;96951.41;;;0.44;78.74
34205;BME280;20471;49.680;20.074;2023-04-07T03:33:19;96951.81;;;0.46;78.69
34205;BME280;20471;49.680;20.074;2023-04-07T03:35:47;96946.77;;;0.47;78.65
34205;BME280;20471;49.680;20.074;2023-04-07T03:38:15;96941.23;;;0.47;78.66
34205;BME280;20471;49.680;20.074;2023-04-07T03:40:43;96939.60;;;0.49;78.71
34205;BME280;20471;49.680;20.074;2023-04-07T03:43:11;96946.95;;;0.51;78.67
34205;BME280;20471;49.680;20.074;2023-04-07T03:45:41;96947.03;;;0.54;78.67
34205;BME280;20471;49.680;20.074;2023-04-07T03:48:09;96948.45;;;0.54;78.59
34205;BME280;20471;49.680;20.074;2023-04-07T03:50:38;96957.62;;;0.53;78.63
34205;BME280;20471;49.680;20.074;2023-04-07T03:53:06;96964.51;;;0.51;78.60
34205;BME280;20471;49.680;20.074;2023-04-07T03:55:35;96965.96;;;0.47;78.74
34205;BME280;20471;49.680;20.074;2023-04-07T03:58:04;96968.83;;;0.47;78.73
34205;BME280;20471;49.680;20.074;2023-04-07T04:00:32;96980.16;;;0.49;78.80
34205;BME280;20471;49.680;20.074;2023-04-07T04:03:01;96977.34;;;0.49;78.88
34205;BME280;20471;49.680;20.074;2023-04-07T04:05:29;96973.73;;;0.48;78.84
34205;BME280;20471;49.680;20.074;2023-04-07T04:07:57;96968.83;;;0.47;78.91
34205;BME280;20471;49.680;20.074;2023-04-07T04:10:25;96968.27;;;0.48;79.01
34205;BME280;20471;49.680;20.074;2023-04-07T04:12:53;96965.33;;;0.48;79.02
34205;BME280;20471;49.680;20.074;2023-04-07T04:15:22;96966.00;;;0.51;79.06
34205;BME280;20471;49.680;20.074;2023-04-07T04:17:50;96965.59;;;0.54;79.12
34205;BME280;20471;49.680;20.074;2023-04-07T04:20:18;96960.08;;;0.58;79.10
34205;BME280;20471;49.680;20.074;2023-04-07T04:22:47;96953.23;;;0.62;79.12
34205;BME280;20471;49.680;20.074;2023-04-07T04:25:16;96954.91;;;0.67;79.09
34205;BME280;20471;49.680;20.074;2023-04-07T04:27:44;96963.93;;;0.70;79.13
34205;BME280;20471;49.680;20.074;2023-04-07T04:30:12;96969.71;;;0.72;79.10
34205;BME280;20471;49.680;20.074;2023-04-07T04:32:41;96965.16;;;0.75;79.10
34205;BME280;20471;49.680;20.074;2023-04-07T04:35:09;96968.10;;;0.77;79.03
34205;BME280;20471;49.680;20.074;2023-04-07T04:37:37;96975.55;;;0.79;79.11
34205;BME280;20471;49.680;20.074;2023-04-07T04:40:06;96971.58;;;0.82;79.05
34205;BME280;20471;49.680;20.074;2023-04-07T04:42:35;96972.21;;;0.82;78.94
34205;BME280;20471;49.680;20.074;2023-04-07T04:45:03;96977.66;;;0.83;79.02
34205;BME280;20471;49.680;20.074;2023-04-07T04:47:31;96975.70;;;0.83;78.91
34205;BME280;20471;49.680;20.074;2023-04-07T04:49:59;96975.17;;;0.83;79.06
34205;BME280;20471;49.680;20.074;2023-04-07T04:52:27;96975.54;;;0.84;78.90
34205;BME280;20471;49.680;20.074;2023-04-07T04:54:55;96973.07;;;0.86;78.93
34205;BME280;20471;49.680;20.074;2023-04-07T04:57:23;96970.17;;;0.90;78.99
34205;BME280;20471;49.680;20.074;2023-04-07T04:59:52;96966.80;;;0.95;78.90
34205;BME280;20471;49.680;20.074;2023-04-07T05:02:20;96964.33;;;0.98;78.77
34205;BME280;20471;49.680;20.074;2023-04-07T05:04:48;96961.15;;;0.99;78.81
34205;BME280;20471;49.680;20.074;2023-04-07T05:07:16;96951.55;;;1.01;78.75
34205;BME280;20471;49.680;20.074;2023-04-07T05:09:44;96956.27;;;1.02;78.78
34205;BME280;20471;49.680;20.074;2023-04-07T05:12:12;96962.90;;;1.03;78.78
34205;BME280;20471;49.680;20.074;2023-04-07T05:14:40;96966.61;;;1.01;78.86
34205;BME280;20471;49.680;20.074;2023-04-07T05:17:08;96968.73;;;1.00;78.73
34205;BME280;20471;49.680;20.074;2023-04-07T05:19:36;96975.59;;;0.98;78.70
34205;BME280;20471;49.680;20.074;2023-04-07T05:22:04;96987.06;;;0.97;78.75
34205;BME280;20471;49.680;20.074;2023-04-07T05:24:33;96988.97;;;0.96;78.75
34205;BME280;20471;49.680;20.074;2023-04-07T05:27:00;96986.71;;;0.96;78.79
34205;BME280;20471;49.680;20.074;2023-04-07T05:29:29;96983.73;;;0.97;78.85
34205;BME280;20471;49.680;20.074;2023-04-07T05:31:57;96984.73;;;0.98;78.93
34205;BME280;20471;49.680;20.074;2023-04-07T05:34:27;96987.66;;;0.97;78.92
34205;BME280;20471;49.680;20.074;2023-04-07T05:36:55;96987.33;;;0.96;78.92
34205;BME280;20471;49.680;20.074;2023-04-07T05:39:23;96982.92;;;0.96;78.92
34205;BME280;20471;49.680;20.074;2023-04-07T05:41:51;96983.58;;;1.00;78.98
34205;BME280;20471;49.680;20.074;2023-04-07T05:44:19;96984.52;;;1.03;79.00
34205;BME280;20471;49.680;20.074;2023-04-07T05:46:47;96983.64;;;1.04;78.94
34205;BME280;20471;49.680;20.074;2023-04-07T05:49:15;96981.41;;;1.07;79.02
34205;BME280;20471;49.680;20.074;2023-04-07T05:51:43;96967.75;;;1.13;79.00
34205;BME280;20471;49.680;20.074;2023-04-07T05:54:11;96961.53;;;1.18;78.92
34205;BME280;20471;49.680;20.074;2023-04-07T05:56:39;96960.04;;;1.22;78.88
34205;BME280;20471;49.680;20.074;2023-04-07T05:59:07;96960.56;;;1.25;78.75
34205;BME280;20471;49.680;20.074;2023-04-07T06:01:35;96956.49;;;1.28;78.66
34205;BME280;20471;49.680;20.074;2023-04-07T06:04:03;96953.57;;;1.32;78.56
34205;BME280;20471;49.680;20.074;2023-04-07T06:06:31;96955.63;;;1.36;78.49
34205;BME280;20471;49.680;20.074;2023-04-07T06:08:59;96965.36;;;1.38;78.50
34205;BME280;20471;49.680;20.074;2023-04-07T06:11:28;96977.15;;;1.39;78.46
34205;BME280;20471;49.680;20.074;2023-04-07T06:13:56;96982.48;;;1.37;78.37
34205;BME280;20471;49.680;20.074;2023-04-07T06:16:24;96980.79;;;1.36;78.44
34205;BME280;20471;49.680;20.074;2023-04-07T06:18:52;96977.73;;;1.35;78.51
34205;BME280;20471;49.680;20.074;2023-04-07T06:21:20;96977.41;;;1.31;78.36
34205;BME280;20471;49.680;20.074;2023-04-07T06:23:48;96972.95;;;1.30;78.32
34205;BME280;20471;49.680;20.074;2023-04-07T06:26:16;96967.35;;;1.33;78.40
34205;BME280;20471;49.680;20.074;2023-04-07T06:28:44;96960.34;;;1.35;78.47
34205;BME280;20471;49.680;20.074;2023-04-07T06:31:12;96956.34;;;1.39;78.35
34205;BME280;20471;49.680;20.074;2023-04-07T06:33:41;96961.10;;;1.43;78.29
34205;BME280;20471;49.680;20.074;2023-04-07T06:36:09;96962.28;;;1.40;78.29
34205;BME280;20471;49.680;20.074;2023-04-07T06:38:37;96956.70;;;1.38;78.37
34205;BME280;20471;49.680;20.074;2023-04-07T06:41:05;96959.06;;;1.40;78.34
34205;BME280;20471;49.680;20.074;2023-04-07T06:43:37;96954.28;;;1.43;78.23
34205;BME280;20471;49.680;20.074;2023-04-07T06:46:05;96954.33;;;1.46;78.26
34205;BME280;20471;49.680;20.074;2023-04-07T06:48:33;96957.40;;;1.49;78.30
34205;BME280;20471;49.680;20.074;2023-04-07T06:51:01;96956.73;;;1.49;78.18
34205;BME280;20471;49.680;20.074;2023-04-07T06:53:29;96961.21;;;1.47;78.06
34205;BME280;20471;49.680;20.074;2023-04-07T06:56:09;96961.46;;;1.44;78.08
34205;BME280;20471;49.680;20.074;2023-04-07T06:58:38;96964.70;;;1.45;78.15
34205;BME280;20471;49.680;20.074;2023-04-07T07:01:06;96963.18;;;1.48;78.23
34205;BME280;20471;49.680;20.074;2023-04-07T07:03:34;96967.48;;;1.51;78.19
34205;BME280;20471;49.680;20.074;2023-04-07T07:06:02;96972.91;;;1.53;78.25
34205;BME280;20471;49.680;20.074;2023-04-07T07:08:30;96974.27;;;1.55;78.17
34205;BME280;20471;49.680;20.074;2023-04-07T07:10:58;96969.51;;;1.57;78.19
34205;BME280;20471;49.680;20.074;2023-04-07T07:13:27;96969.40;;;1.59;78.14
34205;BME280;20471;49.680;20.074;2023-04-07T07:15:55;96971.60;;;1.64;78.10
34205;BME280;20471;49.680;20.074;2023-04-07T07:18:23;96971.00;;;1.69;78.04
34205;BME280;20471;49.680;20.074;2023-04-07T07:20:51;96967.91;;;1.74;78.02
34205;BME280;20471;49.680;20.074;2023-04-07T07:23:19;96963.66;;;1.77;77.92
34205;BME280;20471;49.680;20.074;2023-04-07T07:25:47;96964.75;;;1.81;77.86
34205;BME280;20471;49.680;20.074;2023-04-07T07:28:15;96967.50;;;1.87;77.75
34205;BME280;20471;49.680;20.074;2023-04-07T07:30:44;96970.23;;;1.91;77.65
34205;BME280;20471;49.680;20.074;2023-04-07T07:33:12;96970.73;;;1.94;77.52
34205;BME280;20471;49.680;20.074;2023-04-07T07:35:40;96974.58;;;1.98;77.47
34205;BME280;20471;49.680;20.074;2023-04-07T07:38:08;96977.71;;;2.02;77.50
34205;BME280;20471;49.680;20.074;2023-04-07T07:40:37;96978.44;;;2.03;77.37
34205;BME280;20471;49.680;20.074;2023-04-07T07:43:05;96980.90;;;2.05;77.33
34205;BME280;20471;49.680;20.074;2023-04-07T07:45:33;96975.63;;;2.08;77.17
34205;BME280;20471;49.680;20.074;2023-04-07T07:48:01;96975.30;;;2.11;77.14
34205;BME280;20471;49.680;20.074;2023-04-07T07:50:29;96973.56;;;2.10;77.02
34205;BME280;20471;49.680;20.074;2023-04-07T07:52:57;96976.36;;;2.07;76.94
34205;BME280;20471;49.680;20.074;2023-04-07T07:55:25;96980.77;;;2.07;77.07
34205;BME280;20471;49.680;20.074;2023-04-07T07:57:53;96978.45;;;2.08;77.12
34205;BME280;20471;49.680;20.074;2023-04-07T08:00:22;96986.02;;;2.07;77.19
34205;BME280;20471;49.680;20.074;2023-04-07T08:02:50;96987.64;;;2.07;77.16
34205;BME280;20471;49.680;20.074;2023-04-07T08:05:18;96988.77;;;2.08;77.17
34205;BME280;20471;49.680;20.074;2023-04-07T08:07:47;96989.87;;;2.10;77.13
34205;BME280;20471;49.680;20.074;2023-04-07T08:10:15;96987.84;;;2.09;76.95
34205;BME280;20471;49.680;20.074;2023-04-07T08:12:45;96982.19;;;2.08;76.85
34205;BME280;20471;49.680;20.074;2023-04-07T08:15:13;96981.71;;;2.10;76.91
34205;BME280;20471;49.680;20.074;2023-04-07T08:17:42;96980.62;;;2.11;76.89
34205;BME280;20471;49.680;20.074;2023-04-07T08:20:10;96980.79;;;2.07;76.82
34205;BME280;20471;49.680;20.074;2023-04-07T08:22:38;96978.98;;;2.08;76.93
34205;BME280;20471;49.680;20.074;2023-04-07T08:25:07;96981.69;;;2.09;76.88
34205;BME280;20471;49.680;20.074;2023-04-07T08:27:36;96982.98;;;2.05;76.86
34205;BME280;20471;49.680;20.074;2023-04-07T08:30:06;96984.59;;;2.05;77.03
34205;BME280;20471;49.680;20.074;2023-04-07T08:32:43;96987.04;;;2.09;77.02
34205;BME280;20471;49.680;20.074;2023-04-07T08:35:12;96987.02;;;2.11;76.99
34205;BME280;20471;49.680;20.074;2023-04-07T08:37:40;96989.14;;;2.09;76.96
34205;BME280;20471;49.680;20.074;2023-04-07T08:40:10;96986.05;;;2.11;77.06
34205;BME280;20471;49.680;20.074;2023-04-07T08:42:41;96986.41;;;2.16;77.03
34205;BME280;20471;49.680;20.074;2023-04-07T08:45:09;96988.58;;;2.20;76.97
34205;BME280;20471;49.680;20.074;2023-04-07T08:47:40;96988.31;;;2.25;76.97
34205;BME280;20471;49.680;20.074;2023-04-07T08:50:10;96986.61;;;2.29;76.98
34205;BME280;20471;49.680;20.074;2023-04-07T08:52:55;96987.63;;;2.32;76.93
34205;BME280;20471;49.680;20.074;2023-04-07T08:55:25;96985.60;;;2.36;76.82
34205;BME280;20471;49.680;20.074;2023-04-07T08:57:54;96987.73;;;2.39;76.78
34205;BME280;20471;49.680;20.074;2023-04-07T09:00:22;96986.64;;;2.42;76.85
34205;BME280;20471;49.680;20.074;2023-04-07T09:02:51;96985.80;;;2.45;76.83
34205;BME280;20471;49.680;20.074;2023-04-07T09:05:19;96983.84;;;2.49;76.81
34205;BME280;20471;49.680;20.074;2023-04-07T09:07:50;96984.41;;;2.53;76.80
34205;BME280;20471;49.680;20.074;2023-04-07T09:10:18;96983.29;;;2.52;76.72
34205;BME280;20471;49.680;20.074;2023-04-07T09:12:46;96976.79;;;2.54;76.73
34205;BME280;20471;49.680;20.074;2023-04-07T09:15:15;96976.37;;;2.62;76.69
34205;BME280;20471;49.680;20.074;2023-04-07T09:17:43;96975.11;;;2.65;76.70
34205;BME280;20471;49.680;20.074;2023-04-07T09:20:11;96972.86;;;2.67;76.64
34205;BME280;20471;49.680;20.074;2023-04-07T09:22:41;96971.24;;;2.66;76.52
34205;BME280;20471;49.680;20.074;2023-04-07T09:25:19;96971.00;;;2.64;76.63
34205;BME280;20471;49.680;20.074;2023-04-07T09:27:59;96965.14;;;2.71;76.82
34205;BME280;20471;49.680;20.074;2023-04-07T09:30:32;96962.55;;;2.83;76.87
34205;BME280;20471;49.680;20.074;2023-04-07T09:33:00;96965.55;;;2.94;76.92
34205;BME280;20471;49.680;20.074;2023-04-07T09:35:29;96969.90;;;2.99;76.59
34205;BME280;20471;49.680;20.074;2023-04-07T09:38:04;96972.41;;;3.02;76.56
34205;BME280;20471;49.680;20.074;2023-04-07T09:40:34;96967.75;;;3.07;76.62
34205;BME280;20471;49.680;20.074;2023-04-07T09:43:05;96966.76;;;3.13;76.39
34205;BME280;20471;49.680;20.074;2023-04-07T09:45:33;96964.89;;;3.16;76.25
34205;BME280;20471;49.680;20.074;2023-04-07T09:48:06;96964.48;;;3.14;76.10
34205;BME280;20471;49.680;20.074;2023-04-07T09:50:37;96963.40;;;3.11;76.11
34205;BME280;20471;49.680;20.074;2023-04-07T09:53:06;96967.28;;;3.10;76.05
34205;BME280;20471;49.680;20.074;2023-04-07T09:55:35;96967.21;;;3.10;76.17
34205;BME280;20471;49.680;20.074;2023-04-07T09:58:05;96968.95;;;3.13;76.05
34205;BME280;20471;49.680;20.074;2023-04-07T10:00:34;96967.31;;;3.20;76.04
34205;BME280;20471;49.680;20.074;2023-04-07T10:03:03;96963.73;;;3.27;75.92
34205;BME280;20471;49.680;20.074;2023-04-07T10:05:31;96966.88;;;3.29;75.81
34205;BME280;20471;49.680;20.074;2023-04-07T10:08:01;96969.08;;;3.33;75.81
34205;BME280;20471;49.680;20.074;2023-04-07T10:10:30;96963.85;;;3.37;75.75
34205;BME280;20471;49.680;20.074;2023-04-07T10:12:58;96962.70;;;3.34;75.40
34205;BME280;20471;49.680;20.074;2023-04-07T10:15:27;96962.73;;;3.32;75.59
34205;BME280;20471;49.680;20.074;2023-04-07T10:17:55;96962.52;;;3.28;75.44
34205;BME280;20471;49.680;20.074;2023-04-07T10:20:24;96966.20;;;3.22;75.40
34205;BME280;20471;49.680;20.074;2023-04-07T10:22:54;96970.13;;;3.17;75.44
34205;BME280;20471;49.680;20.074;2023-04-07T10:25:25;96972.19;;;3.19;75.54
34205;BME280;20471;49.680;20.074;2023-04-07T10:28:00;96965.56;;;3.23;75.62
34205;BME280;20471;49.680;20.074;2023-04-07T10:30:32;96964.27;;;3.27;75.82
34205;BME280;20471;49.680;20.074;2023-04-07T10:33:01;96964.98;;;3.30;75.82
34205;BME280;20471;49.680;20.074;2023-04-07T10:36:04;96963.80;;;3.34;75.61
34205;BME280;20471;49.680;20.074;2023-04-07T10:38:33;96961.36;;;3.38;75.64
34205;BME280;20471;49.680;20.074;2023-04-07T10:41:34;96958.64;;;3.40;75.67
34205;BME280;20471;49.680;20.074;2023-04-07T10:44:06;96957.83;;;3.42;75.53
34205;BME280;20471;49.680;20.074;2023-04-07T10:49:14;96952.19;;;3.45;75.57
34205;BME280;20471;49.680;20.074;2023-04-07T10:51:42;96953.00;;;3.47;75.70
34205;BME280;20471;49.680;20.074;2023-04-07T10:54:19;96958.70;;;3.47;75.76
34205;BME280;20471;49.680;20.074;2023-04-07T10:57:10;96955.23;;;3.46;75.67
34205;BME280;20471;49.680;20.074;2023-04-07T10:59:41;96958.25;;;3.45;75.51
34205;BME280;20471;49.680;20.074;2023-04-07T11:04:42;96961.17;;;3.50;75.65
34205;BME280;20471;49.680;20.074;2023-04-07T11:07:12;96959.78;;;3.51;75.69
34205;BME280;20471;49.680;20.074;2023-04-07T11:09:41;96956.31;;;3.52;75.68
34205;BME280;20471;49.680;20.074;2023-04-07T11:12:22;96954.79;;;3.56;75.77
34205;BME280;20471;49.680;20.074;2023-04-07T11:14:51;96949.68;;;3.58;75.64
34205;BME280;20471;49.680;20.074;2023-04-07T11:17:19;96949.95;;;3.58;75.59
34205;BME280;20471;49.680;20.074;2023-04-07T11:19:54;96954.73;;;3.53;75.60
34205;BME280;20471;49.680;20.074;2023-04-07T11:22:23;96957.70;;;3.54;75.78
34205;BME280;20471;49.680;20.074;2023-04-07T11:24:51;96958.09;;;3.58;75.92
34205;BME280;20471;49.680;20.074;2023-04-07T11:27:20;96958.18;;;3.62;75.77
34205;BME280;20471;49.680;20.074;2023-04-07T11:29:48;96960.50;;;3.63;75.69
34205;BME280;20471;49.680;20.074;2023-04-07T11:32:21;96956.38;;;3.65;75.72
34205;BME280;20471;49.680;20.074;2023-04-07T11:34:51;96960.08;;;3.67;75.61
34205;BME280;20471;49.680;20.074;2023-04-07T11:37:20;96958.29;;;3.64;75.51
34205;BME280;20471;49.680;20.074;2023-04-07T11:39:56;96957.22;;;3.64;75.48
34205;BME280;20471;49.680;20.074;2023-04-07T11:42:36;96952.29;;;3.64;75.42
34205;BME280;20471;49.680;20.074;2023-04-07T11:45:14;96955.36;;;3.65;75.50
34205;BME280;20471;49.680;20.074;2023-04-07T11:47:43;96958.91;;;3.66;75.44
34205;BME280;20471;49.680;20.074;2023-04-07T11:50:11;96961.53;;;3.63;75.35
34205;BME280;20471;49.680;20.074;2023-04-07T11:52:42;96965.70;;;3.60;75.47
34205;BME280;20471;49.680;20.074;2023-04-07T11:55:20;96967.45;;;3.60;75.67
34205;BME280;20471;49.680;20.074;2023-04-07T11:57:50;96964.38;;;3.62;75.72
34205;BME280;20471;49.680;20.074;2023-04-07T12:00:19;96968.13;;;3.62;75.66
34205;BME280;20471;49.680;20.074;2023-04-07T12:02:47;96973.35;;;3.62;75.78
34205;BME280;20471;49.680;20.074;2023-04-07T12:05:15;96972.81;;;3.63;75.87
34205;BME280;20471;49.680;20.074;2023-04-07T12:07:52;96969.54;;;3.63;75.86
34205;BME280;20471;49.680;20.074;2023-04-07T12:10:22;96968.49;;;3.62;75.87
34205;BME280;20471;49.680;20.074;2023-04-07T12:12:51;96966.11;;;3.61;75.91
34205;BME280;20471;49.680;20.074;2023-04-07T12:15:20;96964.34;;;3.61;76.09
34205;BME280;20471;49.680;20.074;2023-04-07T12:17:48;96961.02;;;3.59;75.88
34205;BME280;20471;49.680;20.074;2023-04-07T12:20:16;96962.57;;;3.56;75.83
34205;BME280;20471;49.680;20.074;2023-04-07T12:22:44;96960.31;;;3.54;75.92
34205;BME280;20471;49.680;20.074;2023-04-07T12:25:13;96964.45;;;3.54;76.01
34205;BME280;20471;49.680;20.074;2023-04-07T12:27:41;96967.94;;;3.56;75.98
34205;BME280;20471;49.680;20.074;2023-04-07T12:30:10;96967.00;;;3.58;76.03
34205;BME280;20471;49.680;20.074;2023-04-07T12:32:39;96965.75;;;3.59;75.93
34205;BME280;20471;49.680;20.074;2023-04-07T12:35:07;96964.64;;;3.61;75.92
34205;BME280;20471;49.680;20.074;2023-04-07T12:37:35;96965.33;;;3.65;76.03
34205;BME280;20471;49.680;20.074;2023-04-07T12:40:04;96962.61;;;3.68;75.70
34205;BME280;20471;49.680;20.074;2023-04-07T12:42:32;96959.36;;;3.70;75.56
34205;BME280;20471;49.680;20.074;2023-04-07T12:45:01;96958.52;;;3.73;75.60
34205;BME280;20471;49.680;20.074;2023-04-07T12:47:29;96954.72;;;3.78;75.69
34205;BME280;20471;49.680;20.074;2023-04-07T12:49:57;96959.51;;;3.81;75.64
34205;BME280;20471;49.680;20.074;2023-04-07T12:52:26;96961.20;;;3.83;75.54
34205;BME280;20471;49.680;20.074;2023-04-07T12:54:54;96959.81;;;3.84;75.51
34205;BME280;20471;49.680;20.074;2023-04-07T12:57:23;96959.54;;;3.85;75.46
34205;BME280;20471;49.680;20.074;2023-04-07T12:59:51;96957.98;;;3.83;75.53
34205;BME280;20471;49.680;20.074;2023-04-07T13:02:20;96957.82;;;3.83;75.51
34205;BME280;20471;49.680;20.074;2023-04-07T13:04:48;96960.83;;;3.82;75.46
34205;BME280;20471;49.680;20.074;2023-04-07T13:07:16;96963.01;;;3.81;75.51
34205;BME280;20471;49.680;20.074;2023-04-07T13:09:44;96962.31;;;3.80;75.55
34205;BME280;20471;49.680;20.074;2023-04-07T13:12:12;96963.05;;;3.80;75.74
34205;BME280;20471;49.680;20.074;2023-04-07T13:14:41;96962.67;;;3.81;75.73
34205;BME280;20471;49.680;20.074;2023-04-07T13:17:09;96962.45;;;3.78;75.63
34205;BME280;20471;49.680;20.074;2023-04-07T13:19:37;96963.48;;;3.73;75.56
34205;BME280;20471;49.680;20.074;2023-04-07T13:22:05;96960.98;;;3.74;75.68
34205;BME280;20471;49.680;20.074;2023-04-07T13:24:33;96963.14;;;3.76;75.97
34205;BME280;20471;49.680;20.074;2023-04-07T13:27:02;96965.60;;;3.76;75.95
34205;BME280;20471;49.680;20.074;2023-04-07T13:29:30;96968.16;;;3.78;76.00